Time;durP1;ratioP1;P1;durP2;ratioP2;P2;SDS_P1;SDS_P2;PMS_P1;PMS_P2;Temp;Humidity;BMP_temperature;BMP_pressure;BME280_temperature;BME280_humidity;BME280_pressure;Samples;Min_cycle;Max_cycle;Signal;HPM_P1;HPM_P2
2023/03/20 00:01:25;;;;;;;33.90;17.10;;;;;;;8.27;49.21;98467.22;4973052;28;20380;-71
2023/03/20 00:03:52;;;;;;;32.75;15.98;;;;;;;8.27;49.23;98461.75;4974002;28;20023;-71
2023/03/20 00:06:20;;;;;;;37.08;17.80;;;;;;;8.28;49.05;98466.09;4973461;28;20096;-72
2023/03/20 00:08:47;;;;;;;33.80;16.70;;;;;;;8.30;49.27;98468.53;4992643;28;20031;-72
2023/03/20 00:11:28;;;;;;;34.47;17.67;;;;;;;8.29;49.29;98456.81;4992452;28;20026;-72
2023/03/20 00:13:56;;;;;;;35.47;19.33;;;;;;;8.30;49.01;98469.38;4992947;28;20109;-71
2023/03/20 00:16:24;;;;;;;28.75;15.52;;;;;;;8.32;49.16;98472.66;4992348;28;20034;-72
2023/03/20 00:18:49;;;;;;;24.83;13.45;;;;;;;8.35;49.04;98474.00;4992718;28;20026;-72
2023/03/20 00:21:17;;;;;;;25.00;13.85;;;;;;;8.37;49.14;98471.78;4992441;28;20033;-72
2023/03/20 00:23:43;;;;;;;35.00;16.50;;;;;;;8.37;49.30;98469.06;4992411;28;20031;-71
2023/03/20 00:26:12;;;;;;;37.30;17.60;;;;;;;8.40;49.05;98464.94;4992224;28;20047;-71
2023/03/20 00:28:41;;;;;;;32.38;15.65;;;;;;;8.43;49.08;98459.75;4992819;28;20561;-71
2023/03/20 00:31:36;;;;;;;25.27;14.20;;;;;;;8.46;48.88;98472.84;4992271;28;20065;-71
2023/03/20 00:34:11;;;;;;;45.22;19.80;;;;;;;8.48;49.35;98467.09;4992405;28;20419;-71
2023/03/20 00:36:36;;;;;;;46.03;18.67;;;;;;;8.48;49.27;98467.09;4977282;28;20382;-72
2023/03/20 00:39:03;;;;;;;44.47;17.88;;;;;;;8.49;49.12;98458.66;4972890;28;20035;-72
2023/03/20 00:41:37;;;;;;;56.05;21.38;;;;;;;8.51;49.02;98461.09;4972753;28;20045;-72
2023/03/20 00:44:23;;;;;;;67.38;24.05;;;;;;;8.52;49.33;98461.91;4972558;28;20081;-72
2023/03/20 00:46:52;;;;;;;62.17;23.25;;;;;;;8.53;49.39;98458.88;4972464;28;20030;-72
2023/03/20 00:49:21;;;;;;;195.57;62.80;;;;;;;8.54;49.12;98456.97;4973057;28;20031;-72
2023/03/20 00:51:47;;;;;;;61.97;28.45;;;;;;;8.52;49.03;98450.97;4972533;28;20274;-72
2023/03/20 00:54:15;;;;;;;46.72;18.88;;;;;;;8.51;48.95;98444.69;4971414;28;20077;-72
2023/03/20 00:56:45;;;;;;;43.30;17.92;;;;;;;8.52;48.93;98445.50;4972259;28;20038;-71
2023/03/20 00:59:17;;;;;;;52.28;20.48;;;;;;;8.52;49.57;98448.25;4972323;28;20038;-72
2023/03/20 01:01:43;;;;;;;74.70;24.80;;;;;;;8.51;49.59;98438.41;4972078;28;20042;-72
2023/03/20 01:04:11;;;;;;;66.00;23.05;;;;;;;8.51;49.11;98446.63;4971300;28;20034;-72
2023/03/20 01:06:37;;;;;;;52.97;20.90;;;;;;;8.49;49.12;98444.16;4972110;28;20476;-73
2023/03/20 01:09:02;;;;;;;145.05;48.50;;;;;;;8.48;49.22;98439.75;4971993;28;20034;-71
2023/03/20 01:11:28;;;;;;;86.22;37.15;;;;;;;8.43;49.78;98428.84;4972177;28;20454;-72
2023/03/20 01:13:53;;;;;;;96.88;30.02;;;;;;;8.42;49.61;98429.94;4972078;28;20041;-72
2023/03/20 01:16:22;;;;;;;76.30;25.55;;;;;;;8.43;49.69;98428.84;4972186;28;20414;-72
2023/03/20 01:18:49;;;;;;;63.88;23.23;;;;;;;8.42;49.40;98435.41;4972097;28;20038;-72
2023/03/20 01:21:15;;;;;;;60.38;22.02;;;;;;;8.42;49.57;98438.97;4971951;28;20030;-72
2023/03/20 01:23:40;;;;;;;47.97;19.38;;;;;;;8.41;49.34;98436.50;4972193;28;20396;-72
2023/03/20 01:26:21;;;;;;;49.25;19.70;;;;;;;8.39;49.74;98431.34;4971389;28;20446;-71
2023/03/20 01:28:47;;;;;;;40.35;17.25;;;;;;;8.37;50.14;98433.53;4971510;28;20050;-71
2023/03/20 01:31:15;;;;;;;44.17;18.13;;;;;;;8.41;49.66;98436.50;4971685;28;20128;-71
2023/03/20 01:33:40;;;;;;;48.83;20.67;;;;;;;8.40;49.65;98443.91;4972086;28;20029;-72
2023/03/20 01:36:10;;;;;;;97.65;38.30;;;;;;;8.41;49.85;98447.44;4971702;28;20105;-72
2023/03/20 01:38:37;;;;;;;81.03;32.58;;;;;;;8.39;49.53;98453.19;4971519;28;20388;-71
2023/03/20 01:41:06;;;;;;;29.88;16.15;;;;;;;8.39;49.59;98445.00;4971464;28;20049;-71
2023/03/20 01:43:33;;;;;;;46.88;19.33;;;;;;;8.40;50.12;98441.16;4971708;28;20034;-71
2023/03/20 01:46:07;;;;;;;56.13;20.00;;;;;;;8.41;49.51;98450.16;4971552;28;20018;-72
2023/03/20 01:48:59;;;;;;;55.25;22.25;;;;;;;8.40;49.71;98445.81;4971618;28;20431;-71
2023/03/20 01:51:36;;;;;;;57.40;22.65;;;;;;;8.39;49.33;98441.44;4967019;28;20078;-72
2023/03/20 01:54:07;;;;;;;41.65;18.38;;;;;;;8.40;50.10;98459.47;4971660;28;20502;-72
2023/03/20 01:56:40;;;;;;;34.85;16.88;;;;;;;8.42;49.66;98457.28;4971228;28;20026;-71
2023/03/20 01:59:12;;;;;;;37.10;17.48;;;;;;;8.41;49.96;98455.63;4974953;28;20029;-71
2023/03/20 02:01:39;;;;;;;38.92;18.13;;;;;;;8.41;49.38;98461.09;4988973;28;20058;-72
2023/03/20 02:04:05;;;;;;;26.05;13.90;;;;;;;8.42;50.02;98465.47;4971689;28;20038;-72
2023/03/20 02:06:31;;;;;;;27.38;13.40;;;;;;;8.42;50.20;98468.22;4970806;28;20021;-72
2023/03/20 02:08:57;;;;;;;23.67;13.70;;;;;;;8.41;49.82;98464.66;4971403;28;20039;-71
2023/03/20 02:11:24;;;;;;;34.83;16.63;;;;;;;8.41;50.03;98461.94;4970518;28;20086;-72
2023/03/20 02:13:55;;;;;;;33.40;17.27;;;;;;;8.41;50.29;98461.94;4970990;28;20023;-72
2023/03/20 02:16:21;;;;;;;46.85;22.20;;;;;;;8.42;50.09;98465.47;4971324;28;20018;-71
2023/03/20 02:18:50;;;;;;;28.10;14.85;;;;;;;8.42;49.51;98457.28;4971203;28;20439;-71
2023/03/20 02:21:53;;;;;;;36.00;17.35;;;;;;;8.43;50.12;98461.63;4970702;28;20026;-72
2023/03/20 02:24:42;;;;;;;34.83;16.10;;;;;;;8.43;49.64;98464.38;4971223;28;20543;-71
2023/03/20 02:27:22;;;;;;;41.25;17.38;;;;;;;8.44;49.92;98466.84;4971012;28;20047;-72
2023/03/20 02:30:19;;;;;;;41.20;17.92;;;;;;;8.42;50.03;98458.09;4971091;28;20035;-72
2023/03/20 02:33:06;;;;;;;32.25;15.43;;;;;;;8.44;49.76;98460.53;4971394;28;20050;-72
2023/03/20 02:35:59;;;;;;;36.53;16.65;;;;;;;8.43;49.89;98461.63;4971045;28;20035;-72
2023/03/20 02:38:58;;;;;;;29.05;14.57;;;;;;;8.43;49.73;98459.75;4971456;28;20391;-72
2023/03/20 02:41:29;;;;;;;31.80;15.35;;;;;;;8.43;50.15;98456.19;4971090;28;20109;-72
2023/03/20 02:44:35;;;;;;;25.98;13.50;;;;;;;8.42;49.97;98449.91;4971374;28;20026;-72
2023/03/20 02:47:00;;;;;;;25.13;13.82;;;;;;;8.42;49.97;98449.91;4971013;28;20490;-72
2023/03/20 02:49:53;;;;;;;23.88;13.02;;;;;;;8.40;50.31;98454.84;4970962;28;20035;-72
2023/03/20 02:52:37;;;;;;;22.48;12.23;;;;;;;8.42;49.69;98460.00;4970770;28;20042;-72
2023/03/20 02:55:22;;;;;;;20.13;11.98;;;;;;;8.39;49.73;98457.84;4970932;28;20593;-72
2023/03/20 02:57:51;;;;;;;20.35;11.98;;;;;;;8.37;49.97;98458.13;4971495;28;20097;-72
2023/03/20 03:00:28;;;;;;;24.80;13.07;;;;;;;8.33;49.62;98459.78;4970835;28;20055;-72
2023/03/20 03:03:06;;;;;;;18.63;11.77;;;;;;;8.30;50.08;98450.25;4970619;28;20051;-72
2023/03/20 03:05:37;;;;;;;25.00;12.25;;;;;;;8.31;49.62;98456.53;4970913;28;20034;-72
2023/03/20 03:08:05;;;;;;;23.85;12.57;;;;;;;8.29;49.66;98455.97;4971099;28;20035;-71
2023/03/20 03:10:37;;;;;;;22.38;13.63;;;;;;;8.30;50.04;98460.34;4970360;28;20031;-71
2023/03/20 03:13:07;;;;;;;24.42;13.20;;;;;;;8.29;49.78;98459.53;4970621;28;20487;-71
2023/03/20 03:15:42;;;;;;;18.15;11.55;;;;;;;8.31;49.78;98465.56;4970548;28;20121;-72
2023/03/20 03:18:18;;;;;;;19.98;11.77;;;;;;;8.32;49.92;98467.19;4970712;28;20027;-71
2023/03/20 03:20:47;;;;;;;26.02;12.00;;;;;;;8.33;49.86;98463.34;4970414;28;20046;-72
2023/03/20 03:23:22;;;;;;;25.85;13.52;;;;;;;8.33;50.16;98454.31;4971788;28;20114;-71
2023/03/20 03:25:48;;;;;;;27.60;14.73;;;;;;;8.34;49.80;98461.44;4972840;28;20050;-71
2023/03/20 03:28:39;;;;;;;25.20;14.07;;;;;;;8.30;50.25;98463.91;4974243;28;20030;-72
2023/03/20 03:31:10;;;;;;;23.52;14.63;;;;;;;8.31;49.95;98460.09;4974217;28;20023;-71
2023/03/20 03:33:38;;;;;;;22.38;13.02;;;;;;;8.30;49.88;98457.63;4974545;28;20057;-71
2023/03/20 03:36:25;;;;;;;19.98;12.52;;;;;;;8.28;50.18;98452.44;4974018;28;20051;-72
2023/03/20 03:39:09;;;;;;;23.67;13.07;;;;;;;8.24;49.76;98456.84;4984235;28;20058;-72
2023/03/20 03:41:41;;;;;;;24.38;13.20;;;;;;;8.22;50.20;98450.84;4993295;28;20026;-71
2023/03/20 03:44:19;;;;;;;19.95;13.27;;;;;;;8.19;50.34;98459.59;4993624;28;20034;-72
2023/03/20 03:46:49;;;;;;;24.80;14.55;;;;;;;8.13;50.06;98450.63;4993131;28;20025;-72
2023/03/20 03:49:22;;;;;;;22.38;13.48;;;;;;;8.10;50.21;98450.34;4993605;28;20061;-72
2023/03/20 03:51:52;;;;;;;17.95;11.43;;;;;;;8.05;50.10;98452.00;4982742;28;20058;-72
2023/03/20 03:54:22;;;;;;;20.27;12.38;;;;;;;8.03;50.04;98447.91;4973999;28;20462;-70
2023/03/20 03:56:49;;;;;;;21.17;12.95;;;;;;;8.00;50.49;98452.00;4973484;28;20034;-71
2023/03/20 03:59:34;;;;;;;21.95;13.18;;;;;;;7.93;50.60;98459.72;4973758;28;20444;-70
2023/03/20 04:02:02;;;;;;;20.45;12.55;;;;;;;7.87;50.52;98458.09;4973032;28;20716;-71
2023/03/20 04:04:30;;;;;;;23.85;12.43;;;;;;;7.83;50.19;98459.72;4972051;28;20042;-71
2023/03/20 04:06:56;;;;;;;21.65;12.77;;;;;;;7.80;50.54;98460.28;4971416;28;20113;-71
2023/03/20 04:09:21;;;;;;;23.25;13.35;;;;;;;7.75;51.08;98464.66;4971934;28;20804;-70
2023/03/20 04:11:50;;;;;;;23.55;13.52;;;;;;;7.75;50.76;98469.28;4971457;28;20027;-71
2023/03/20 04:14:16;;;;;;;21.05;13.00;;;;;;;7.71;50.53;98466.31;4971720;28;20041;-71
2023/03/20 04:16:41;;;;;;;21.15;12.90;;;;;;;7.67;51.00;98473.41;4971136;28;20033;-70
2023/03/20 04:19:07;;;;;;;22.48;12.63;;;;;;;7.67;50.72;98473.41;4973511;28;20061;-71
2023/03/20 04:21:32;;;;;;;18.80;12.18;;;;;;;7.68;50.98;98468.78;4973031;28;20113;-71
2023/03/20 04:23:57;;;;;;;21.90;12.70;;;;;;;7.67;51.00;98465.22;4973523;28;20077;-71
2023/03/20 04:26:23;;;;;;;20.73;13.20;;;;;;;7.66;50.77;98471.78;4973047;28;20384;-71
2023/03/20 04:28:48;;;;;;;20.17;12.57;;;;;;;7.67;51.46;98461.69;4973269;28;20029;-71
2023/03/20 04:31:14;;;;;;;22.05;13.48;;;;;;;7.68;51.04;98463.34;4972635;28;20047;-71
2023/03/20 04:33:40;;;;;;;21.02;13.55;;;;;;;7.67;50.94;98467.97;4971707;28;20062;-70
2023/03/20 04:36:07;;;;;;;24.38;15.02;;;;;;;7.65;51.00;98456.50;4972033;28;20691;-70
2023/03/20 04:38:32;;;;;;;22.27;14.48;;;;;;;7.63;51.06;98466.88;4983782;28;20121;-71
2023/03/20 04:40:58;;;;;;;20.23;12.80;;;;;;;7.62;51.17;98465.25;4972156;28;20041;-70
2023/03/20 04:43:23;;;;;;;22.35;12.77;;;;;;;7.63;51.52;98464.13;4972578;28;20027;-70
2023/03/20 04:45:48;;;;;;;22.27;13.65;;;;;;;7.62;51.32;98456.25;4972185;28;20030;-71
2023/03/20 04:48:14;;;;;;;23.85;12.93;;;;;;;7.64;51.36;98468.50;4972572;28;20019;-71
2023/03/20 04:50:39;;;;;;;23.92;12.88;;;;;;;7.64;51.42;98459.50;4972902;28;20031;-71
2023/03/20 04:53:05;;;;;;;22.77;13.63;;;;;;;7.65;51.91;98472.06;4972481;28;21388;-71
2023/03/20 04:55:31;;;;;;;22.40;12.75;;;;;;;7.67;51.53;98473.41;4972193;28;20102;-71
2023/03/20 04:57:57;;;;;;;24.17;13.73;;;;;;;7.71;51.32;98468.25;4972511;28;20027;-71
2023/03/20 05:00:23;;;;;;;29.45;14.38;;;;;;;7.71;51.48;98469.03;4972740;28;20486;-71
2023/03/20 05:02:48;;;;;;;27.80;14.77;;;;;;;7.73;51.85;98474.25;4971682;28;20026;-70
2023/03/20 05:05:15;;;;;;;26.15;14.10;;;;;;;7.76;51.84;98481.84;4972197;28;20451;-71
2023/03/20 05:07:40;;;;;;;21.10;12.73;;;;;;;7.78;51.66;98479.66;4972315;28;20106;-72
2023/03/20 05:10:06;;;;;;;21.67;12.90;;;;;;;7.79;51.74;98477.75;4972177;28;20102;-71
2023/03/20 05:12:31;;;;;;;27.20;13.43;;;;;;;7.80;51.88;98474.75;4971605;28;20050;-71
2023/03/20 05:14:57;;;;;;;24.98;13.98;;;;;;;7.83;51.93;98484.31;4971960;28;20049;-71
2023/03/20 05:17:23;;;;;;;22.20;13.70;;;;;;;7.83;51.77;98481.56;4971991;28;20475;-71
2023/03/20 05:19:49;;;;;;;23.02;15.50;;;;;;;7.84;52.29;98475.81;4971918;28;20387;-72
2023/03/20 05:22:17;;;;;;;22.08;13.38;;;;;;;7.84;52.41;98485.94;4971836;28;20037;-71
2023/03/20 05:24:43;;;;;;;22.75;13.95;;;;;;;7.84;52.69;98477.75;4971854;28;20538;-71
2023/03/20 05:27:09;;;;;;;23.48;14.35;;;;;;;7.84;52.41;98485.94;4971920;28;20053;-71
2023/03/20 05:29:34;;;;;;;23.02;15.80;;;;;;;7.84;53.14;98481.28;4972087;28;20542;-71
2023/03/20 05:32:01;;;;;;;22.73;14.50;;;;;;;7.85;52.80;98472.00;4971576;28;20114;-71
2023/03/20 05:34:26;;;;;;;25.00;14.88;;;;;;;7.88;53.39;98478.84;4986608;28;20114;-72
2023/03/20 05:36:52;;;;;;;27.73;16.05;;;;;;;7.90;53.22;98488.38;4983389;28;20039;-72
2023/03/20 05:39:17;;;;;;;25.63;16.83;;;;;;;7.92;53.62;98490.00;4971762;28;20031;-72
2023/03/20 05:41:43;;;;;;;26.60;15.02;;;;;;;7.93;53.75;98495.22;4971335;28;20042;-71
2023/03/20 05:44:08;;;;;;;25.85;14.50;;;;;;;7.95;53.34;98490.25;4971943;28;20054;-71
2023/03/20 05:46:34;;;;;;;23.70;14.73;;;;;;;7.98;53.69;98495.16;4971198;28;20030;-71
2023/03/20 05:48:59;;;;;;;25.42;15.48;;;;;;;8.00;54.15;98490.25;4972157;28;20031;-71
2023/03/20 05:51:25;;;;;;;32.30;17.95;;;;;;;8.05;53.82;98492.16;4971244;28;20387;-71
2023/03/20 05:53:51;;;;;;;29.25;16.65;;;;;;;8.07;54.50;98489.97;4971360;28;20051;-71
2023/03/20 05:56:16;;;;;;;26.10;15.38;;;;;;;8.10;54.10;98483.13;4970849;28;20093;-72
2023/03/20 05:58:42;;;;;;;30.05;16.45;;;;;;;8.15;54.58;98485.84;4971567;28;20035;-71
2023/03/20 06:01:07;;;;;;;28.83;15.93;;;;;;;8.22;54.41;98490.97;4971121;28;20041;-71
2023/03/20 06:03:33;;;;;;;29.67;17.45;;;;;;;8.26;53.80;98501.09;4971488;28;20038;-71
2023/03/20 06:05:58;;;;;;;30.50;16.98;;;;;;;8.32;54.07;98499.97;4970663;28;20035;-72
2023/03/20 06:08:24;;;;;;;30.08;16.27;;;;;;;8.37;54.50;98507.31;4971209;28;20034;-71
2023/03/20 06:10:50;;;;;;;28.35;15.90;;;;;;;8.39;54.32;98513.31;4971148;28;20031;-71
2023/03/20 06:13:16;;;;;;;29.92;16.20;;;;;;;8.45;54.62;98516.84;4971071;28;20034;-71
2023/03/20 06:15:41;;;;;;;27.00;15.80;;;;;;;8.50;54.49;98519.59;4971001;28;20671;-72
2023/03/20 06:18:07;;;;;;;25.50;14.75;;;;;;;8.53;55.01;98526.41;4971797;28;20058;-72
2023/03/20 06:20:32;;;;;;;24.02;13.85;;;;;;;8.53;54.50;98524.50;4970958;28;20399;-71
2023/03/20 06:22:57;;;;;;;26.73;14.68;;;;;;;8.56;55.17;98528.59;4970863;28;20031;-71
2023/03/20 06:25:23;;;;;;;28.50;16.45;;;;;;;8.56;55.03;98536.81;4970677;28;20454;-72
2023/03/20 06:27:48;;;;;;;26.70;16.23;;;;;;;8.58;54.85;98540.03;4970931;28;20051;-71
2023/03/20 06:30:15;;;;;;;28.73;16.95;;;;;;;8.60;54.64;98535.94;4971447;28;20027;-72
2023/03/20 06:32:41;;;;;;;26.83;15.65;;;;;;;8.63;54.98;98538.13;4971302;28;20105;-72
2023/03/20 06:35:08;;;;;;;30.50;18.10;;;;;;;8.66;55.07;98536.72;4971048;28;20494;-72
2023/03/20 06:37:33;;;;;;;30.25;17.83;;;;;;;8.69;54.78;98538.09;4970931;28;20038;-72
2023/03/20 06:39:59;;;;;;;29.55;17.95;;;;;;;8.73;54.91;98534.50;4970794;28;20034;-72
2023/03/20 06:42:24;;;;;;;35.72;23.88;;;;;;;8.77;54.67;98541.03;4969475;28;20058;-72
2023/03/20 06:44:50;;;;;;;32.97;21.80;;;;;;;8.83;55.07;98538.28;4968970;28;20480;-72
2023/03/20 06:47:15;;;;;;;34.10;22.15;;;;;;;8.88;55.09;98547.25;4970062;28;20031;-76
2023/03/20 06:49:41;;;;;;;36.65;21.20;;;;;;;8.91;55.08;98545.91;4973834;28;20108;-72
2023/03/20 06:52:09;;;;;;;39.03;26.70;;;;;;;8.96;55.18;98545.03;4970249;28;20112;-74
2023/03/20 06:54:34;;;;;;;38.20;24.15;;;;;;;8.99;54.84;98545.28;4970456;28;20027;-72
2023/03/20 06:57:00;;;;;;;34.83;20.98;;;;;;;9.02;55.33;98541.97;4970284;28;20046;-72
2023/03/20 06:59:26;;;;;;;42.63;27.92;;;;;;;9.07;55.16;98546.63;4973434;28;20077;-72
2023/03/20 07:01:51;;;;;;;50.03;32.97;;;;;;;9.08;55.08;98550.97;4975830;28;20030;-70
2023/03/20 07:04:17;;;;;;;52.67;30.98;;;;;;;9.15;55.47;98550.66;4975448;28;20027;-73
2023/03/20 07:06:42;;;;;;;33.67;20.35;;;;;;;9.20;55.02;98551.41;4973103;28;20039;-76
2023/03/20 07:09:08;;;;;;;34.08;19.60;;;;;;;9.23;56.51;98553.59;4973820;28;20039;-73
2023/03/20 07:11:34;;;;;;;29.33;17.23;;;;;;;9.27;56.00;98553.03;4974185;28;20039;-71
2023/03/20 07:14:00;;;;;;;25.35;16.48;;;;;;;9.30;56.05;98563.41;4973547;28;20089;-71
2023/03/20 07:16:26;;;;;;;28.23;16.98;;;;;;;9.31;56.22;98562.31;4972944;28;20034;-72
2023/03/20 07:18:51;;;;;;;27.38;17.35;;;;;;;9.33;56.46;98562.84;4974025;28;20026;-72
2023/03/20 07:21:20;;;;;;;27.67;17.33;;;;;;;9.34;57.19;98556.25;4973040;28;20399;-73
2023/03/20 07:23:45;;;;;;;29.35;17.85;;;;;;;9.35;57.48;98564.19;4972861;28;20069;-70
2023/03/20 07:26:11;;;;;;;28.33;18.27;;;;;;;9.40;56.70;98563.34;4972436;28;20047;-70
2023/03/20 07:28:36;;;;;;;28.27;17.38;;;;;;;9.44;57.69;98560.81;4978365;28;20062;-72
2023/03/20 07:31:02;;;;;;;30.73;18.08;;;;;;;9.45;57.62;98565.19;4974450;28;20034;-71
2023/03/20 07:33:27;;;;;;;29.98;19.30;;;;;;;9.47;58.02;98563.81;4975525;28;20023;-72
2023/03/20 07:35:53;;;;;;;31.50;18.63;;;;;;;9.51;57.59;98562.16;4976395;28;20050;-72
2023/03/20 07:38:20;;;;;;;31.90;18.33;;;;;;;9.57;57.20;98556.63;4975668;28;20100;-71
2023/03/20 07:40:47;;;;;;;28.88;17.98;;;;;;;9.59;57.55;98565.34;4975033;28;20033;-75
2023/03/20 07:43:16;;;;;;;31.27;18.95;;;;;;;9.62;58.35;98565.63;4973108;28;20443;-72
2023/03/20 07:45:41;;;;;;;30.85;18.90;;;;;;;9.64;57.99;98566.16;4972786;28;20057;-72
2023/03/20 07:48:07;;;;;;;30.20;18.17;;;;;;;9.70;57.93;98566.91;4974015;28;20034;-71
2023/03/20 07:50:32;;;;;;;30.15;18.67;;;;;;;9.73;58.40;98565.53;4969005;28;20062;-71
2023/03/20 07:52:58;;;;;;;31.90;19.08;;;;;;;9.76;58.55;98565.75;4974685;28;20527;-71
2023/03/20 07:55:24;;;;;;;32.10;18.17;;;;;;;9.81;58.07;98571.19;4972473;28;20038;-72
2023/03/20 07:57:49;;;;;;;29.63;18.45;;;;;;;9.88;58.76;98572.78;4973170;28;20034;-72
2023/03/20 08:00:17;;;;;;;31.20;18.77;;;;;;;9.93;57.98;98573.53;4972806;28;20090;-71
2023/03/20 08:02:43;;;;;;;31.73;19.05;;;;;;;10.00;58.45;98561.44;4972726;28;20089;-72
2023/03/20 08:05:08;;;;;;;30.88;17.70;;;;;;;10.10;58.12;98564.06;4973225;28;20034;-72
2023/03/20 08:07:35;;;;;;;28.50;18.10;;;;;;;10.21;58.56;98559.28;4973283;28;20041;-72
2023/03/20 08:10:01;;;;;;;27.85;17.42;;;;;;;10.29;58.63;98564.13;4971833;28;20029;-71
2023/03/20 08:12:26;;;;;;;28.77;17.60;;;;;;;10.38;58.50;98567.88;4973284;28;20562;-71
2023/03/20 08:14:52;;;;;;;29.63;17.65;;;;;;;10.47;58.34;98568.06;4973542;28;20065;-71
2023/03/20 08:17:17;;;;;;;28.85;18.05;;;;;;;10.54;58.63;98565.78;4974689;28;20058;-71
2023/03/20 08:19:43;;;;;;;32.30;19.02;;;;;;;10.61;58.06;98559.09;4972462;28;20030;-71
2023/03/20 08:22:08;;;;;;;29.50;16.88;;;;;;;10.72;59.21;98561.44;4972954;28;20106;-72
2023/03/20 08:24:34;;;;;;;26.77;17.52;;;;;;;10.84;58.99;98563.75;4971921;28;20053;-71
2023/03/20 08:26:59;;;;;;;25.45;18.27;;;;;;;10.89;58.72;98562.84;4972744;28;20054;-70
2023/03/20 08:29:25;;;;;;;28.77;18.70;;;;;;;10.95;58.66;98569.09;4972745;28;20117;-71
2023/03/20 08:31:50;;;;;;;29.02;17.77;;;;;;;10.94;58.55;98571.00;4972789;28;20027;-71
2023/03/20 08:34:16;;;;;;;27.33;18.17;;;;;;;10.96;58.80;98570.72;4971677;28;20035;-72
2023/03/20 08:36:41;;;;;;;28.85;18.83;;;;;;;10.97;58.85;98573.16;4971842;28;20041;-72
2023/03/20 08:39:07;;;;;;;29.83;19.73;;;;;;;10.98;58.66;98574.78;4972656;28;20128;-72
2023/03/20 08:41:34;;;;;;;33.35;19.83;;;;;;;10.94;59.68;98579.25;4972327;28;20041;-71
2023/03/20 08:44:00;;;;;;;33.67;19.85;;;;;;;10.93;58.91;98563.88;4972548;28;20030;-70
2023/03/20 08:46:25;;;;;;;45.95;26.00;;;;;;;10.94;59.31;98571.00;4969939;28;20391;-71
2023/03/20 08:48:51;;;;;;;51.30;29.05;;;;;;;10.95;58.74;98567.16;4971780;28;20037;-70
2023/03/20 08:51:16;;;;;;;42.15;26.80;;;;;;;10.95;58.61;98566.34;4972233;28;20121;-72
2023/03/20 08:53:41;;;;;;;48.60;30.55;;;;;;;10.95;58.99;98572.63;4970525;28;20037;-72
2023/03/20 08:56:08;;;;;;;48.67;27.77;;;;;;;10.97;58.80;98567.66;4970419;28;20455;-71
2023/03/20 08:58:33;;;;;;;44.40;26.90;;;;;;;10.96;58.26;98573.47;4972509;28;20471;-71
2023/03/20 09:01:07;;;;;;;46.45;26.50;;;;;;;10.98;58.34;98579.47;4972327;28;20081;-73
2023/03/20 09:03:32;;;;;;;43.75;26.90;;;;;;;11.04;58.33;98574.72;4971683;28;20038;-72
2023/03/20 09:05:58;;;;;;;44.38;26.65;;;;;;;11.08;57.88;98581.25;4971023;28;20391;-72
2023/03/20 09:08:23;;;;;;;50.92;29.05;;;;;;;11.17;58.19;98580.28;4969432;28;20030;-73
2023/03/20 09:10:49;;;;;;;48.08;28.65;;;;;;;11.22;57.84;98582.13;4971507;28;20394;-73
2023/03/20 09:13:14;;;;;;;46.28;27.45;;;;;;;11.27;57.75;98576.56;4971304;28;20027;-71
2023/03/20 09:15:40;;;;;;;42.45;24.60;;;;;;;11.36;58.04;98575.91;4971251;28;20031;-73
2023/03/20 09:18:05;;;;;;;35.47;21.75;;;;;;;11.45;58.01;98574.09;4983783;28;20121;-72
2023/03/20 09:20:31;;;;;;;39.53;24.25;;;;;;;11.58;58.01;98576.09;4971108;28;20038;-73
2023/03/20 09:22:56;;;;;;;50.90;25.52;;;;;;;11.70;57.55;98577.53;4970976;28;20117;-71
2023/03/20 09:25:22;;;;;;;39.05;22.27;;;;;;;11.72;57.86;98576.13;4982516;28;20189;-71
2023/03/20 09:27:51;;;;;;;41.05;21.75;;;;;;;11.73;57.74;98572.28;4970996;28;20392;-72
2023/03/20 09:30:16;;;;;;;48.13;26.30;;;;;;;11.75;57.23;98571.97;4970804;28;20046;-72
2023/03/20 09:32:42;;;;;;;41.42;24.67;;;;;;;11.76;57.45;98574.41;4971227;28;20030;-72
2023/03/20 09:35:07;;;;;;;34.60;21.08;;;;;;;11.85;57.29;98568.22;4971344;28;20033;-70
2023/03/20 09:37:33;;;;;;;39.72;21.65;;;;;;;11.93;57.36;98562.03;4970221;28;20377;-72
2023/03/20 09:39:58;;;;;;;48.35;23.17;;;;;;;12.00;57.44;98569.91;4970696;28;20035;-70
2023/03/20 09:42:56;;;;;;;32.72;20.02;;;;;;;12.02;57.60;98574.00;4972206;28;20502;-71
2023/03/20 09:45:38;;;;;;;30.40;18.83;;;;;;;12.06;57.50;98560.44;4970360;28;20050;-71
2023/03/20 09:48:08;;;;;;;27.83;16.55;;;;;;;12.06;57.48;98572.25;4969225;28;20046;-70
2023/03/20 09:50:46;;;;;;;26.00;15.55;;;;;;;12.02;57.92;98574.00;4971408;28;20023;-70
2023/03/20 09:53:20;;;;;;;28.83;17.73;;;;;;;11.97;57.65;98574.03;4971574;28;20085;-73
2023/03/20 09:55:47;;;;;;;30.52;17.88;;;;;;;11.95;57.77;98578.22;4970869;28;20033;-71
2023/03/20 09:58:34;;;;;;;31.75;18.40;;;;;;;11.88;57.81;98581.34;4971069;28;20113;-70
2023/03/20 10:01:02;;;;;;;26.17;16.75;;;;;;;11.86;58.09;98584.41;4971047;28;20493;-71
2023/03/20 10:03:49;;;;;;;29.90;17.73;;;;;;;11.78;57.71;98571.34;4970807;28;20541;-74
2023/03/20 10:06:16;;;;;;;25.10;15.90;;;;;;;11.72;57.88;98580.81;4970679;28;20035;-72
2023/03/20 10:08:43;;;;;;;24.95;15.05;;;;;;;11.67;58.00;98570.72;4971781;28;20085;-71
2023/03/20 10:11:33;;;;;;;27.17;16.77;;;;;;;11.64;58.34;98568.56;4971373;28;20039;-71
2023/03/20 10:14:01;;;;;;;;;;;;;;;11.64;58.22;98565.84;4978615;28;20473;-72
2023/03/20 10:16:39;;;;;;;27.35;16.50;;;;;;;11.60;58.91;98562.06;4970591;28;19918;-71
2023/03/20 10:19:27;;;;;;;26.35;17.80;;;;;;;11.60;59.02;98567.53;4971757;28;20073;-71
2023/03/20 10:22:06;;;;;;;30.93;19.93;;;;;;;11.66;59.15;98568.25;4970907;28;20050;-70
2023/03/20 10:24:48;;;;;;;31.70;19.10;;;;;;;11.73;59.70;98566.78;4971098;28;20089;-72
2023/03/20 10:27:25;;;;;;;31.80;19.42;;;;;;;11.82;59.26;98560.59;4988700;28;20551;-71
2023/03/20 10:30:15;;;;;;;33.05;19.83;;;;;;;11.95;59.40;98556.25;4991786;28;20030;-71
2023/03/20 10:32:51;;;;;;;30.58;18.60;;;;;;;12.11;59.33;98549.34;4991889;28;20487;-71
2023/03/20 10:35:45;;;;;;;26.67;17.20;;;;;;;12.29;59.85;98553.13;4990621;28;20110;-71
2023/03/20 10:38:33;;;;;;;27.85;17.55;;;;;;;12.44;59.73;98542.94;4957571;28;20047;-71
2023/03/20 10:41:01;;;;;;;26.83;17.08;;;;;;;12.60;59.50;98549.78;4975386;28;20055;-71
2023/03/20 10:43:31;;;;;;;31.40;18.30;;;;;;;12.70;59.53;98537.72;4975522;28;20035;-71
2023/03/20 10:46:08;;;;;;;25.20;16.42;;;;;;;12.82;59.36;98547.41;4975545;28;20030;-72
2023/03/20 10:49:09;;;;;;;27.73;17.27;;;;;;;12.92;59.35;98553.47;4976085;28;20030;-70
2023/03/20 10:51:45;;;;;;;25.70;16.33;;;;;;;13.04;59.08;98549.38;4970668;28;20476;-70
2023/03/20 10:54:31;;;;;;;25.90;16.25;;;;;;;13.09;59.15;98543.72;4974054;28;20023;-71
2023/03/20 10:56:59;;;;;;;24.52;14.63;;;;;;;13.20;59.16;98544.34;4974815;28;20030;-71
2023/03/20 10:59:35;;;;;;;23.83;14.23;;;;;;;13.34;59.48;98539.56;4975152;28;20080;-71
2023/03/20 11:02:01;;;;;;;22.35;14.38;;;;;;;13.46;59.35;98533.50;4975037;28;20031;-71
2023/03/20 11:04:26;;;;;;;22.08;13.95;;;;;;;13.59;59.20;98536.53;4974893;28;20035;-71
2023/03/20 11:07:02;;;;;;;27.77;14.60;;;;;;;13.78;58.85;98536.31;4975099;28;20491;-71
2023/03/20 11:09:29;;;;;;;18.60;13.63;;;;;;;13.96;58.86;98537.22;4975284;28;20372;-70
2023/03/20 11:12:00;;;;;;;20.00;12.65;;;;;;;14.09;58.71;98532.72;4974409;28;20113;-71
2023/03/20 11:14:36;;;;;;;21.20;12.68;;;;;;;14.20;58.02;98528.56;4974851;28;20035;-71
2023/03/20 11:17:03;;;;;;;23.10;13.95;;;;;;;14.23;57.82;98525.16;4974827;28;20174;-71
2023/03/20 11:19:33;;;;;;;18.15;12.55;;;;;;;14.32;57.51;98524.38;4975012;28;20027;-71
2023/03/20 11:22:05;;;;;;;20.00;12.68;;;;;;;14.40;57.54;98513.38;4974873;28;20388;-72
2023/03/20 11:24:44;;;;;;;32.40;15.00;;;;;;;14.61;57.36;98520.25;4974628;28;20041;-73
2023/03/20 11:27:29;;;;;;;28.05;16.25;;;;;;;14.76;57.04;98508.78;4974197;28;20043;-71
2023/03/20 11:29:59;;;;;;;17.27;11.65;;;;;;;14.83;57.09;98506.34;4975270;28;20439;-71
2023/03/20 11:32:30;;;;;;;30.08;14.20;;;;;;;14.87;56.52;98507.34;4974969;28;20124;-70
2023/03/20 11:35:09;;;;;;;23.80;12.57;;;;;;;14.90;55.97;98508.63;4974769;28;20031;-72